Time;durP1;ratioP1;P1;durP2;ratioP2;P2;SDS_P1;SDS_P2;PMS_P1;PMS_P2;Temp;Humidity;BMP_temperature;BMP_pressure;BME280_temperature;BME280_humidity;BME280_pressure;Samples;Min_cycle;Max_cycle;Signal;HPM_P1;HPM_P2
2023/06/22 00:01:50;;;;;;;14.60;9.20;;;;;;;-128.00;-1.00;-1.00;97976;294;1003049;-31
2023/06/22 00:04:16;;;;;;;8.40;7.40;;;;;;;-128.00;-1.00;-1.00;97876;294;1003817;-34
2023/06/22 00:06:42;;;;;;;9.80;7.60;;;;;;;-128.00;-1.00;-1.00;97983;294;1005072;-31
2023/06/22 00:09:08;;;;;;;8.10;7.20;;;;;;;-128.00;-1.00;-1.00;97798;294;1003680;-30
2023/06/22 00:11:33;;;;;;;8.30;7.00;;;;;;;-128.00;-1.00;-1.00;98024;293;1003928;-34
2023/06/22 00:13:59;;;;;;;6.80;5.90;;;;;;;-128.00;-1.00;-1.00;97969;294;1003677;-33
2023/06/22 00:16:25;;;;;;;7.30;6.60;;;;;;;-128.00;-1.00;-1.00;98040;294;1003476;-31
2023/06/22 00:18:51;;;;;;;8.90;8.00;;;;;;;-128.00;-1.00;-1.00;97792;294;1003008;-35
2023/06/22 00:21:16;;;;;;;8.40;6.90;;;;;;;-128.00;-1.00;-1.00;97793;294;1002650;-35
2023/06/22 00:23:43;;;;;;;9.80;8.80;;;;;;;-128.00;-1.00;-1.00;97853;294;1004066;-35
2023/06/22 00:26:08;;;;;;;8.30;7.50;;;;;;;-128.00;-1.00;-1.00;97833;294;1004042;-34
2023/06/22 00:28:34;;;;;;;15.70;10.70;;;;;;;-128.00;-1.00;-1.00;97978;294;1002828;-35
2023/06/22 00:31:00;;;;;;;8.80;7.50;;;;;;;-128.00;-1.00;-1.00;97850;294;1004292;-29
2023/06/22 00:33:28;;;;;;;18.80;9.30;;;;;;;-128.00;-1.00;-1.00;97790;294;1003235;-34
2023/06/22 00:35:54;;;;;;;10.80;8.60;;;;;;;-128.00;-1.00;-1.00;98015;294;1002933;-34
2023/06/22 01:18:21;;;;;;;47.00;35.00;;;;;;;-98.77;19.20;19910.69;19577;295;8046185;-32
2023/06/22 01:20:48;;;;;;;44.60;29.10;;;;;;;-128.00;-1.00;-1.00;18063;297;7504357;-35
2023/06/22 01:23:27;;;;;;;21.20;17.30;;;;;;;-128.00;-1.00;-1.00;18481;294;7505851;-34
2023/06/22 01:26:05;;;;;;;31.20;23.80;;;;;;;-128.00;-1.00;-1.00;18451;302;7506599;-35
2023/06/22 01:28:49;;;;;;;32.70;27.40;;;;;;;-128.00;-1.00;-1.00;18449;295;7504475;-32
2023/06/22 01:31:20;;;;;;;60.00;45.90;;;;;;;-128.00;-1.00;-1.00;18472;296;7504840;-32
2023/06/22 01:33:49;;;;;;;27.90;22.80;;;;;;;-128.00;-1.00;-1.00;18476;294;7505741;-32
2023/06/22 01:36:14;;;;;;;28.90;20.10;;;;;;;-128.00;-1.00;-1.00;18470;294;7504306;-32
2023/06/22 01:38:40;;;;;;;22.00;18.50;;;;;;;-128.00;-1.00;-1.00;18473;294;7504968;-36
2023/06/22 01:41:06;;;;;;;30.90;23.60;;;;;;;-128.00;-1.00;-1.00;18471;295;7506246;-35
2023/06/22 01:43:31;;;;;;;20.30;18.10;;;;;;;-128.00;-1.00;-1.00;18449;295;7506461;-35
2023/06/22 01:46:00;;;;;;;25.70;22.30;;;;;;;-128.00;-1.00;-1.00;18457;302;7504373;-36
2023/06/22 01:48:26;;;;;;;33.90;22.90;;;;;;;-128.00;-1.00;-1.00;18469;288;7504702;-32
2023/06/22 01:50:53;;;;;;;25.90;19.70;;;;;;;-128.00;-1.00;-1.00;18505;315;7505934;-32
2023/06/22 01:53:22;;;;;;;21.90;18.40;;;;;;;-128.00;-1.00;-1.00;18455;295;7506243;-35
2023/06/22 01:55:48;;;;;;;24.10;21.30;;;;;;;-128.00;-1.00;-1.00;18517;294;7505403;-35
2023/06/22 01:58:14;;;;;;;39.40;24.60;;;;;;;-128.00;-1.00;-1.00;18481;294;7504715;-31
2023/06/22 02:00:44;;;;;;;50.50;26.60;;;;;;;-128.00;-1.00;-1.00;18469;319;7505665;-35
2023/06/22 02:03:11;;;;;;;30.10;21.70;;;;;;;-128.00;-1.00;-1.00;18464;294;7506142;-31
2023/06/22 02:05:42;;;;;;;17.60;14.70;;;;;;;-128.00;-1.00;-1.00;18464;294;7505743;-35
2023/06/22 02:08:09;;;;;;;22.50;17.60;;;;;;;-128.00;-1.00;-1.00;18476;311;7506870;-32
2023/06/22 02:10:36;;;;;;;33.30;20.80;;;;;;;-128.00;-1.00;-1.00;18516;295;7504145;-32
2023/06/22 02:13:04;;;;;;;43.50;22.30;;;;;;;-128.00;-1.00;-1.00;18456;295;7504709;-32
2023/06/22 02:15:29;;;;;;;26.90;20.60;;;;;;;-128.00;-1.00;-1.00;18464;335;7506003;-33
2023/06/22 02:17:55;;;;;;;32.70;24.30;;;;;;;-128.00;-1.00;-1.00;18864;285;7504519;-32
2023/06/22 02:20:23;;;;;;;33.20;21.80;;;;;;;-128.00;-1.00;-1.00;18879;319;7504280;-32
2023/06/22 02:22:49;;;;;;;25.00;18.00;;;;;;;-128.00;-1.00;-1.00;18465;318;7504549;-36
2023/06/22 02:25:15;;;;;;;33.80;24.20;;;;;;;-128.00;-1.00;-1.00;18893;347;7505612;-36
2023/06/22 02:27:41;;;;;;;31.10;20.70;;;;;;;-128.00;-1.00;-1.00;18856;295;7505119;-36
2023/06/22 02:30:09;;;;;;;25.90;16.30;;;;;;;-128.00;-1.00;-1.00;18926;295;7506650;-36
2023/06/22 02:32:35;;;;;;;18.40;14.90;;;;;;;-128.00;-1.00;-1.00;18477;295;7504256;-32
2023/06/22 02:35:04;;;;;;;22.40;15.60;;;;;;;-128.00;-1.00;-1.00;18498;288;7505130;-34
2023/06/22 02:37:31;;;;;;;22.10;18.70;;;;;;;-128.00;-1.00;-1.00;18505;295;7505883;-32
2023/06/22 02:39:56;;;;;;;20.60;15.40;;;;;;;-128.00;-1.00;-1.00;18502;288;7505345;-32
2023/06/22 02:42:22;;;;;;;35.30;22.50;;;;;;;-128.00;-1.00;-1.00;18463;318;7505442;-36
2023/06/22 02:44:48;;;;;;;28.30;21.40;;;;;;;-128.00;-1.00;-1.00;18456;303;7505269;-32
2023/06/22 02:47:13;;;;;;;31.60;23.80;;;;;;;-128.00;-1.00;-1.00;18476;295;7504440;-36
2023/06/22 02:49:39;;;;;;;28.40;20.30;;;;;;;-128.00;-1.00;-1.00;18472;295;7505140;-36
2023/06/22 02:52:05;;;;;;;21.30;17.30;;;;;;;-128.00;-1.00;-1.00;18454;295;7504543;-32
2023/06/22 02:54:31;;;;;;;33.80;22.00;;;;;;;-128.00;-1.00;-1.00;18463;318;7505217;-36
2023/06/22 02:56:56;;;;;;;25.10;19.80;;;;;;;-128.00;-1.00;-1.00;18450;295;7505737;-36
2023/06/22 02:59:23;;;;;;;29.60;22.30;;;;;;;-128.00;-1.00;-1.00;18900;347;7504424;-34
2023/06/22 03:01:50;;;;;;;39.40;20.80;;;;;;;-128.00;-1.00;-1.00;18485;307;7506122;-31
2023/06/22 03:04:16;;;;;;;20.20;16.30;;;;;;;-128.00;-1.00;-1.00;18505;295;7504313;-35
2023/06/22 03:06:41;;;;;;;27.90;18.90;;;;;;;-128.00;-1.00;-1.00;18469;295;7506968;-32
2023/06/22 03:09:07;;;;;;;22.50;17.80;;;;;;;-128.00;-1.00;-1.00;18467;295;7506037;-31
2023/06/22 03:11:33;;;;;;;19.20;16.60;;;;;;;-128.00;-1.00;-1.00;18464;319;7504742;-31
2023/06/22 03:13:59;;;;;;;21.60;17.10;;;;;;;-128.00;-1.00;-1.00;18491;318;7504964;-35
2023/06/22 03:16:25;;;;;;;24.80;16.90;;;;;;;-128.00;-1.00;-1.00;18470;295;7504297;-32
2023/06/22 03:18:53;;;;;;;22.20;16.00;;;;;;;-128.00;-1.00;-1.00;18476;307;7504981;-35
2023/06/22 03:21:21;;;;;;;25.40;17.70;;;;;;;-128.00;-1.00;-1.00;18449;295;7506844;-32
2023/06/22 03:23:47;;;;;;;20.40;15.00;;;;;;;-128.00;-1.00;-1.00;18484;288;7505543;-32
2023/06/22 03:26:12;;;;;;;15.90;13.80;;;;;;;-128.00;-1.00;-1.00;18469;295;7504547;-36
2023/06/22 03:28:38;;;;;;;16.90;15.00;;;;;;;-128.00;-1.00;-1.00;18478;295;7505980;-36
2023/06/22 03:31:06;;;;;;;15.00;12.50;;;;;;;-128.00;-1.00;-1.00;18487;295;7504780;-36
2023/06/22 03:33:32;;;;;;;20.30;17.10;;;;;;;-128.00;-1.00;-1.00;18456;295;7504319;-33
2023/06/22 03:35:58;;;;;;;27.40;21.30;;;;;;;-128.00;-1.00;-1.00;18479;295;7505266;-33
2023/06/22 03:38:24;;;;;;;32.10;19.60;;;;;;;-128.00;-1.00;-1.00;18465;295;7505783;-37
2023/06/22 03:40:49;;;;;;;17.70;15.00;;;;;;;-128.00;-1.00;-1.00;18474;335;7504598;-33
2023/06/22 03:43:15;;;;;;;25.00;18.80;;;;;;;-128.00;-1.00;-1.00;18883;295;7504810;-33
2023/06/22 03:45:42;;;;;;;23.40;20.80;;;;;;;-128.00;-1.00;-1.00;18890;295;7505259;-36
2023/06/22 03:48:08;;;;;;;24.70;18.90;;;;;;;-128.00;-1.00;-1.00;18864;288;7504354;-33
2023/06/22 03:50:34;;;;;;;26.10;20.80;;;;;;;-128.00;-1.00;-1.00;18879;295;7504601;-33
2023/06/22 03:53:00;;;;;;;23.10;18.90;;;;;;;-128.00;-1.00;-1.00;18876;295;7505047;-37
2023/06/22 03:55:27;;;;;;;23.00;18.80;;;;;;;-128.00;-1.00;-1.00;18886;295;7505288;-37
2023/06/22 03:57:56;;;;;;;24.30;19.00;;;;;;;-128.00;-1.00;-1.00;18890;295;7506694;-33
2023/06/22 04:00:23;;;;;;;21.10;17.50;;;;;;;-128.00;-1.00;-1.00;18501;295;7505273;-37
2023/06/22 04:02:48;;;;;;;25.30;18.60;;;;;;;-128.00;-1.00;-1.00;18486;295;7504994;-33
2023/06/22 04:05:14;;;;;;;21.10;18.60;;;;;;;-128.00;-1.00;-1.00;18501;287;7504454;-36
2023/06/22 04:07:41;;;;;;;24.10;19.50;;;;;;;-128.00;-1.00;-1.00;18445;283;7506178;-33
2023/06/22 04:10:06;;;;;;;27.80;18.10;;;;;;;-128.00;-1.00;-1.00;18456;295;7504698;-32
2023/06/22 04:12:33;;;;;;;24.30;18.70;;;;;;;-128.00;-1.00;-1.00;18476;347;7506279;-33
2023/06/22 04:14:59;;;;;;;32.10;19.40;;;;;;;-128.00;-1.00;-1.00;18476;295;7506545;-36
2023/06/22 04:17:24;;;;;;;32.00;19.60;;;;;;;-128.00;-1.00;-1.00;18464;336;7504517;-35
2023/06/22 04:19:51;;;;;;;21.40;17.90;;;;;;;-128.00;-1.00;-1.00;18464;283;7504825;-32
2023/06/22 04:22:18;;;;;;;19.20;17.20;;;;;;;-128.00;-1.00;-1.00;18488;318;7504452;-32
2023/06/22 04:24:44;;;;;;;32.80;18.40;;;;;;;-128.00;-1.00;-1.00;18489;295;7505068;-36
2023/06/22 04:27:10;;;;;;;18.40;16.20;;;;;;;-128.00;-1.00;-1.00;18497;347;7504468;-35
2023/06/22 04:29:38;;;;;;;19.90;16.30;;;;;;;-128.00;-1.00;-1.00;18859;287;7505398;-36
2023/06/22 04:32:05;;;;;;;22.60;17.60;;;;;;;-128.00;-1.00;-1.00;18469;287;7504525;-32
2023/06/22 04:34:31;;;;;;;23.70;20.40;;;;;;;-128.00;-1.00;-1.00;18459;287;7507266;-32
2023/06/22 04:36:56;;;;;;;21.90;17.90;;;;;;;-128.00;-1.00;-1.00;18435;314;7504698;-35
2023/06/22 04:39:23;;;;;;;24.10;20.50;;;;;;;-128.00;-1.00;-1.00;18460;295;7504822;-35
2023/06/22 04:41:51;;;;;;;31.20;19.80;;;;;;;-128.00;-1.00;-1.00;18463;295;7504554;-35
2023/06/22 04:44:24;;;;;;;20.50;17.60;;;;;;;-128.00;-1.00;-1.00;18453;288;7506225;-35
2023/06/22 04:46:53;;;;;;;20.50;16.70;;;;;;;-128.00;-1.00;-1.00;18450;295;7506219;-35
2023/06/22 04:49:20;;;;;;;19.10;16.80;;;;;;;-128.00;-1.00;-1.00;18459;288;7506478;-32
2023/06/22 04:51:46;;;;;;;20.50;17.90;;;;;;;-128.00;-1.00;-1.00;18463;295;7504134;-32
2023/06/22 04:54:12;;;;;;;24.20;19.70;;;;;;;-128.00;-1.00;-1.00;18476;288;7504716;-31
2023/06/22 04:56:40;;;;;;;24.40;21.00;;;;;;;-128.00;-1.00;-1.00;18903;340;7504305;-36
2023/06/22 04:59:06;;;;;;;18.00;15.70;;;;;;;-128.00;-1.00;-1.00;18466;318;7504984;-32
2023/06/22 05:01:32;;;;;;;15.80;14.00;;;;;;;-128.00;-1.00;-1.00;18507;295;7504583;-36
2023/06/22 05:04:00;;;;;;;21.30;16.50;;;;;;;-128.00;-1.00;-1.00;18474;288;7504663;-32
2023/06/22 05:06:26;;;;;;;27.00;14.40;;;;;;;-128.00;-1.00;-1.00;18483;295;7504308;-33
2023/06/22 05:08:59;;;;;;;19.20;16.00;;;;;;;-128.00;-1.00;-1.00;18461;295;7505754;-36
2023/06/22 05:11:26;;;;;;;18.90;15.50;;;;;;;-128.00;-1.00;-1.00;18470;347;7505695;-36
2023/06/22 05:13:51;;;;;;;24.80;17.40;;;;;;;-128.00;-1.00;-1.00;18445;295;7505898;-36
2023/06/22 05:16:17;;;;;;;16.20;14.50;;;;;;;-128.00;-1.00;-1.00;18468;295;7504755;-31
2023/06/22 05:18:43;;;;;;;20.80;17.70;;;;;;;-128.00;-1.00;-1.00;18479;330;7505384;-35
2023/06/22 05:21:09;;;;;;;17.30;14.10;;;;;;;-128.00;-1.00;-1.00;18510;296;7504578;-31
2023/06/22 05:23:34;;;;;;;14.90;13.30;;;;;;;-128.00;-1.00;-1.00;18463;303;7506368;-36
2023/06/22 05:26:00;;;;;;;17.90;11.40;;;;;;;-128.00;-1.00;-1.00;18457;295;7504612;-36
2023/06/22 05:28:26;;;;;;;23.20;14.50;;;;;;;-128.00;-1.00;-1.00;18467;330;7505934;-36
2023/06/22 05:30:51;;;;;;;16.50;10.50;;;;;;;-128.00;-1.00;-1.00;18480;288;7504801;-36
2023/06/22 05:33:17;;;;;;;15.90;12.80;;;;;;;-128.00;-1.00;-1.00;18449;295;7505281;-36
2023/06/22 05:35:43;;;;;;;15.80;11.70;;;;;;;-128.00;-1.00;-1.00;18452;295;7506061;-33
2023/06/22 05:38:08;;;;;;;12.70;10.00;;;;;;;-128.00;-1.00;-1.00;18483;295;7505390;-36
2023/06/22 05:40:34;;;;;;;11.60;10.50;;;;;;;-128.00;-1.00;-1.00;18504;288;7504248;-35
2023/06/22 05:43:01;;;;;;;10.50;9.30;;;;;;;-128.00;-1.00;-1.00;18461;296;7506043;-35
2023/06/22 05:45:27;;;;;;;11.70;9.40;;;;;;;-128.00;-1.00;-1.00;18458;295;7504235;-35
2023/06/22 05:47:53;;;;;;;11.60;8.70;;;;;;;-128.00;-1.00;-1.00;18882;288;7504570;-36
2023/06/22 05:50:19;;;;;;;10.50;9.10;;;;;;;-128.00;-1.00;-1.00;18877;296;7505076;-32
2023/06/22 05:52:45;;;;;;;9.90;7.40;;;;;;;-128.00;-1.00;-1.00;18847;288;7504640;-36
2023/06/22 05:55:12;;;;;;;13.00;8.80;;;;;;;-128.00;-1.00;-1.00;18877;288;7504591;-33
2023/06/22 05:57:38;;;;;;;11.10;9.80;;;;;;;-128.00;-1.00;-1.00;18876;295;7504826;-36
2023/06/22 06:00:10;;;;;;;12.00;10.00;;;;;;;-128.00;-1.00;-1.00;18859;288;7504950;-36
2023/06/22 06:02:36;;;;;;;12.10;7.30;;;;;;;-128.00;-1.00;-1.00;18437;295;7505300;-36
2023/06/22 06:05:03;;;;;;;7.50;6.80;;;;;;;-128.00;-1.00;-1.00;18460;287;7506061;-32
2023/06/22 06:07:29;;;;;;;12.10;9.60;;;;;;;-128.00;-1.00;-1.00;18482;295;7505796;-32
2023/06/22 06:09:55;;;;;;;9.80;8.90;;;;;;;-128.00;-1.00;-1.00;18481;287;7504257;-33
2023/06/22 06:12:21;;;;;;;6.80;5.90;;;;;;;-128.00;-1.00;-1.00;18463;295;7506212;-35
2023/06/22 06:14:47;;;;;;;8.60;6.80;;;;;;;-128.00;-1.00;-1.00;18485;287;7504744;-32
2023/06/22 06:17:13;;;;;;;8.70;7.90;;;;;;;-128.00;-1.00;-1.00;18446;295;7505048;-32
2023/06/22 06:19:39;;;;;;;6.90;6.40;;;;;;;-128.00;-1.00;-1.00;18462;287;7506423;-35
2023/06/22 06:22:04;;;;;;;6.30;5.70;;;;;;;-128.00;-1.00;-1.00;18464;287;7506157;-36
2023/06/22 06:24:30;;;;;;;7.40;6.70;;;;;;;-128.00;-1.00;-1.00;18468;295;7504180;-32
2023/06/22 06:26:55;;;;;;;9.20;7.80;;;;;;;-128.00;-1.00;-1.00;18478;288;7505175;-35
2023/06/22 06:29:23;;;;;;;7.10;6.40;;;;;;;-128.00;-1.00;-1.00;18454;295;7506010;-36
2023/06/22 06:31:49;;;;;;;10.80;9.70;;;;;;;-128.00;-1.00;-1.00;18452;336;7504611;-32
2023/06/22 06:34:14;;;;;;;8.70;7.70;;;;;;;-128.00;-1.00;-1.00;18461;288;7505007;-35
2023/06/22 06:36:40;;;;;;;15.80;8.30;;;;;;;-128.00;-1.00;-1.00;18474;288;7504364;-33
2023/06/22 06:39:06;;;;;;;9.90;7.50;;;;;;;-128.00;-1.00;-1.00;18877;295;7504611;-36
2023/06/22 06:41:32;;;;;;;9.20;7.30;;;;;;;-128.00;-1.00;-1.00;18884;319;7505074;-35
2023/06/22 06:43:59;;;;;;;8.30;6.50;;;;;;;-128.00;-1.00;-1.00;18881;295;7504716;-37
2023/06/22 06:46:25;;;;;;;9.80;8.80;;;;;;;-128.00;-1.00;-1.00;18868;288;7505914;-31
2023/06/22 06:48:51;;;;;;;7.00;6.30;;;;;;;-128.00;-1.00;-1.00;18856;340;7505321;-34
2023/06/22 06:51:17;;;;;;;7.90;6.30;;;;;;;-128.00;-1.00;-1.00;18863;347;7504458;-33
2023/06/22 06:53:43;;;;;;;9.00;8.20;;;;;;;-128.00;-1.00;-1.00;18500;295;7506240;-36
2023/06/22 06:56:10;;;;;;;5.40;4.90;;;;;;;-128.00;-1.00;-1.00;18480;295;7506625;-33
2023/06/22 06:58:36;;;;;;;6.60;6.10;;;;;;;-128.00;-1.00;-1.00;18474;295;7504796;-37
2023/06/22 07:01:03;;;;;;;7.80;7.20;;;;;;;-128.00;-1.00;-1.00;18473;297;7504878;-36
2023/06/22 07:03:28;;;;;;;5.00;4.60;;;;;;;-128.00;-1.00;-1.00;18506;295;7504339;-32
2023/06/22 07:05:54;;;;;;;4.80;4.40;;;;;;;-128.00;-1.00;-1.00;18465;295;7504411;-36
2023/06/22 07:08:20;;;;;;;5.50;4.90;;;;;;;-128.00;-1.00;-1.00;18883;295;7504676;-36
2023/06/22 07:10:46;;;;;;;10.20;5.40;;;;;;;-128.00;-1.00;-1.00;18880;295;7505445;-32
2023/06/22 07:13:13;;;;;;;6.50;5.90;;;;;;;-128.00;-1.00;-1.00;18864;295;7506069;-36
2023/06/22 07:15:39;;;;;;;7.80;6.80;;;;;;;-128.00;-1.00;-1.00;18862;295;7504374;-33
2023/06/22 07:18:05;;;;;;;6.40;5.80;;;;;;;-128.00;-1.00;-1.00;18867;295;7504278;-36
2023/06/22 07:20:32;;;;;;;5.80;4.70;;;;;;;-128.00;-1.00;-1.00;18873;335;7504399;-32
2023/06/22 07:22:58;;;;;;;9.60;6.80;;;;;;;-128.00;-1.00;-1.00;18887;318;7504669;-36
2023/06/22 07:25:24;;;;;;;5.30;4.80;;;;;;;-128.00;-1.00;-1.00;18868;295;7504806;-32
2023/06/22 07:28:01;;;;;;;6.80;6.20;;;;;;;-128.00;-1.00;-1.00;18878;295;7505538;-33
2023/06/22 07:30:27;;;;;;;6.80;6.20;;;;;;;-128.00;-1.00;-1.00;18469;295;7504549;-36
2023/06/22 07:32:52;;;;;;;7.70;6.40;;;;;;;-128.00;-1.00;-1.00;18465;315;7506163;-32
2023/06/22 07:35:18;;;;;;;7.00;6.30;;;;;;;-128.00;-1.00;-1.00;18480;335;7505730;-32
2023/06/22 07:37:44;;;;;;;10.50;5.80;;;;;;;-128.00;-1.00;-1.00;18450;295;7506048;-36
2023/06/22 07:40:10;;;;;;;8.00;5.80;;;;;;;-128.00;-1.00;-1.00;18486;295;7504748;-33
2023/06/22 07:42:36;;;;;;;5.60;4.70;;;;;;;-128.00;-1.00;-1.00;18439;295;7505988;-32
2023/06/22 07:45:03;;;;;;;8.20;7.30;;;;;;;-128.00;-1.00;-1.00;18892;335;7504591;-33
2023/06/22 07:47:29;;;;;;;9.40;5.90;;;;;;;-128.00;-1.00;-1.00;18476;295;7505907;-36
2023/06/22 07:49:57;;;;;;;6.70;6.00;;;;;;;-128.00;-1.00;-1.00;18459;295;7506213;-33
2023/06/22 07:52:25;;;;;;;8.10;6.20;;;;;;;-128.00;-1.00;-1.00;18493;319;7505918;-36
2023/06/22 07:54:50;;;;;;;6.20;5.30;;;;;;;-128.00;-1.00;-1.00;18465;295;7505754;-36
2023/06/22 07:57:16;;;;;;;8.10;5.30;;;;;;;-128.00;-1.00;-1.00;18465;333;7504526;-32
2023/06/22 07:59:42;;;;;;;5.80;5.20;;;;;;;-128.00;-1.00;-1.00;18474;298;7504752;-32
2023/06/22 08:02:09;;;;;;;5.80;5.30;;;;;;;-128.00;-1.00;-1.00;18505;295;7506692;-36
2023/06/22 08:04:34;;;;;;;5.80;5.30;;;;;;;-128.00;-1.00;-1.00;18466;295;7505960;-33
2023/06/22 08:07:01;;;;;;;6.60;5.90;;;;;;;-128.00;-1.00;-1.00;18865;284;7504613;-36
2023/06/22 08:09:31;;;;;;;8.60;5.40;;;;;;;-128.00;-1.00;-1.00;18462;295;7505860;-33
2023/06/22 08:11:57;;;;;;;7.60;6.50;;;;;;;-128.00;-1.00;-1.00;18474;295;7506182;-36
2023/06/22 08:14:25;;;;;;;7.70;7.10;;;;;;;-128.00;-1.00;-1.00;18446;307;7505283;-35
2023/06/22 08:16:50;;;;;;;7.80;6.60;;;;;;;-128.00;-1.00;-1.00;18472;295;7506768;-32
2023/06/22 08:19:16;;;;;;;11.90;5.50;;;;;;;-128.00;-1.00;-1.00;18475;295;7504682;-32
2023/06/22 08:21:42;;;;;;;10.50;6.70;;;;;;;-128.00;-1.00;-1.00;18469;295;7504705;-32
2023/06/22 08:24:08;;;;;;;8.00;5.70;;;;;;;-128.00;-1.00;-1.00;18496;295;7504277;-34
2023/06/22 08:26:36;;;;;;;5.90;5.40;;;;;;;-128.00;-1.00;-1.00;18478;295;7505707;-32
2023/06/22 08:29:03;;;;;;;5.70;5.20;;;;;;;-128.00;-1.00;-1.00;18497;347;7506256;-32
2023/06/22 08:31:30;;;;;;;7.20;6.50;;;;;;;-128.00;-1.00;-1.00;18468;347;7504665;-31
2023/06/22 08:33:56;;;;;;;6.20;5.60;;;;;;;-128.00;-1.00;-1.00;18475;287;7506202;-32
2023/06/22 08:36:22;;;;;;;5.40;4.90;;;;;;;-128.00;-1.00;-1.00;18480;295;7504868;-32
2023/06/22 08:38:51;;;;;;;6.10;5.10;;;;;;;-128.00;-1.00;-1.00;18492;287;7506207;-37
2023/06/22 08:41:17;;;;;;;7.50;6.90;;;;;;;-128.00;-1.00;-1.00;18443;341;7504250;-35
2023/06/22 08:43:44;;;;;;;4.60;4.20;;;;;;;-128.00;-1.00;-1.00;18470;288;7506439;-35
2023/06/22 08:46:10;;;;;;;6.30;4.60;;;;;;;-128.00;-1.00;-1.00;18458;288;7504636;-32
2023/06/22 08:48:36;;;;;;;6.50;5.80;;;;;;;-128.00;-1.00;-1.00;18464;285;7506309;-35
2023/06/22 08:51:04;;;;;;;5.30;4.90;;;;;;;-128.00;-1.00;-1.00;18875;347;7504307;-32
2023/06/22 08:53:30;;;;;;;3.80;3.50;;;;;;;-128.00;-1.00;-1.00;18446;288;7504743;-35
2023/06/22 08:55:55;;;;;;;7.10;6.40;;;;;;;-128.00;-1.00;-1.00;18466;342;7504587;-36
2023/06/22 08:58:21;;;;;;;9.60;8.60;;;;;;;-128.00;-1.00;-1.00;18476;295;7504295;-36
2023/06/22 09:00:48;;;;;;;8.80;6.00;;;;;;;-128.00;-1.00;-1.00;18491;311;7504334;-35
2023/06/22 09:03:14;;;;;;;5.70;5.20;;;;;;;-128.00;-1.00;-1.00;18462;295;7505303;-33
2023/06/22 09:05:39;;;;;;;4.60;4.20;;;;;;;-128.00;-1.00;-1.00;18458;295;7505666;-36
2023/06/22 09:08:05;;;;;;;5.20;4.70;;;;;;;-128.00;-1.00;-1.00;18489;295;7504666;-36
2023/06/22 09:10:31;;;;;;;4.70;4.30;;;;;;;-128.00;-1.00;-1.00;18460;295;7505674;-33
2023/06/22 09:12:57;;;;;;;4.90;4.40;;;;;;;-128.00;-1.00;-1.00;18499;288;7505130;-36
2023/06/22 09:15:23;;;;;;;12.00;4.60;;;;;;;-128.00;-1.00;-1.00;18454;307;7504048;-33
2023/06/22 09:17:49;;;;;;;4.00;3.70;;;;;;;-128.00;-1.00;-1.00;18463;295;7506196;-36
2023/06/22 09:20:15;;;;;;;6.50;5.90;;;;;;;-128.00;-1.00;-1.00;18463;288;7504631;-35
2023/06/22 09:22:41;;;;;;;5.70;5.20;;;;;;;-128.00;-1.00;-1.00;18022;297;7506719;-33
2023/06/22 09:25:07;;;;;;;4.30;3.90;;;;;;;-128.00;-1.00;-1.00;18468;295;7505776;-31
2023/06/22 09:27:33;;;;;;;4.40;4.10;;;;;;;-128.00;-1.00;-1.00;18496;295;7506157;-34
2023/06/22 09:29:59;;;;;;;4.40;4.00;;;;;;;-128.00;-1.00;-1.00;18478;295;7504596;-31
2023/06/22 09:32:25;;;;;;;3.80;3.50;;;;;;;-128.00;-1.00;-1.00;18483;295;7506407;-34
2023/06/22 09:34:52;;;;;;;6.10;5.60;;;;;;;-128.00;-1.00;-1.00;18466;295;7504675;-34
2023/06/22 09:37:18;;;;;;;4.90;4.20;;;;;;;-128.00;-1.00;-1.00;18470;347;7506228;-31
2023/06/22 09:39:44;;;;;;;8.80;6.00;;;;;;;-128.00;-1.00;-1.00;18884;287;7504571;-35
2023/06/22 09:42:11;;;;;;;6.50;5.20;;;;;;;-128.00;-1.00;-1.00;18889;287;7504722;-34
2023/06/22 09:44:37;;;;;;;4.10;3.80;;;;;;;-128.00;-1.00;-1.00;18504;295;7505978;-33
2023/06/22 09:47:03;;;;;;;5.30;4.80;;;;;;;-128.00;-1.00;-1.00;18480;288;7504916;-36
2023/06/22 09:49:28;;;;;;;4.60;4.20;;;;;;;-128.00;-1.00;-1.00;18473;319;7505285;-33
2023/06/22 09:51:54;;;;;;;11.00;5.60;;;;;;;-128.00;-1.00;-1.00;18931;295;7504811;-35
2023/06/22 09:54:21;;;;;;;5.80;3.70;;;;;;;-128.00;-1.00;-1.00;18874;295;7504479;-32
2023/06/22 09:56:47;;;;;;;4.20;3.80;;;;;;;-128.00;-1.00;-1.00;18893;289;7504404;-32
2023/06/22 09:59:13;;;;;;;3.50;2.90;;;;;;;-128.00;-1.00;-1.00;18872;295;7505338;-35
2023/06/22 10:01:39;;;;;;;4.00;3.60;;;;;;;-128.00;-1.00;-1.00;18910;288;7505334;-36
2023/06/22 10:04:06;;;;;;;9.00;3.10;;;;;;;-128.00;-1.00;-1.00;18901;295;7504674;-35
2023/06/22 10:06:32;;;;;;;4.00;3.20;;;;;;;-128.00;-1.00;-1.00;18871;295;7505013;-35
2023/06/22 10:08:58;;;;;;;5.60;4.90;;;;;;;-128.00;-1.00;-1.00;18861;295;7504380;-32
2023/06/22 10:11:29;;;;;;;4.10;3.80;;;;;;;-128.00;-1.00;-1.00;18853;295;7504137;-32
2023/06/22 10:13:55;;;;;;;3.60;3.30;;;;;;;-128.00;-1.00;-1.00;18488;307;7504911;-32
2023/06/22 10:16:20;;;;;;;5.50;3.60;;;;;;;-128.00;-1.00;-1.00;18458;288;7506484;-36
2023/06/22 10:18:47;;;;;;;7.90;3.80;;;;;;;-128.00;-1.00;-1.00;18495;295;7505094;-35
2023/06/22 10:21:16;;;;;;;3.20;2.90;;;;;;;-128.00;-1.00;-1.00;18492;288;7504678;-35
2023/06/22 10:23:41;;;;;;;3.90;3.50;;;;;;;-128.00;-1.00;-1.00;18464;347;7504925;-35
2023/06/22 10:26:08;;;;;;;4.00;3.30;;;;;;;-128.00;-1.00;-1.00;18887;307;7505337;-35
2023/06/22 10:28:34;;;;;;;3.70;3.30;;;;;;;-128.00;-1.00;-1.00;18868;295;7505100;-35
2023/06/22 10:31:00;;;;;;;4.80;3.80;;;;;;;-128.00;-1.00;-1.00;18871;295;7504351;-32
2023/06/22 10:33:26;;;;;;;3.70;3.40;;;;;;;-128.00;-1.00;-1.00;18882;295;7505280;-32
2023/06/22 10:35:53;;;;;;;3.70;3.40;;;;;;;-128.00;-1.00;-1.00;18885;288;7504383;-32
2023/06/22 10:38:19;;;;;;;3.70;3.40;;;;;;;-128.00;-1.00;-1.00;18886;307;7504960;-32
2023/06/22 10:40:45;;;;;;;4.20;3.70;;;;;;;-128.00;-1.00;-1.00;18872;335;7504929;-35
2023/06/22 10:43:11;;;;;;;9.60;2.80;;;;;;;-128.00;-1.00;-1.00;18866;295;7505305;-37
2023/06/22 10:45:37;;;;;;;4.10;3.70;;;;;;;-128.00;-1.00;-1.00;18866;295;7504694;-32
2023/06/22 10:48:04;;;;;;;3.20;2.90;;;;;;;-128.00;-1.00;-1.00;18873;288;7505889;-32
2023/06/22 10:50:30;;;;;;;4.70;2.70;;;;;;;-128.00;-1.00;-1.00;18462;295;7504850;-33
2023/06/22 10:52:57;;;;;;;2.80;2.50;;;;;;;-128.00;-1.00;-1.00;18868;288;7504183;-32
2023/06/22 10:55:23;;;;;;;7.10;4.10;;;;;;;-128.00;-1.00;-1.00;18458;335;7506394;-32
2023/06/22 10:57:49;;;;;;;3.50;3.20;;;;;;;-128.00;-1.00;-1.00;18500;295;7504642;-32
2023/06/22 11:00:15;;;;;;;5.30;3.20;;;;;;;-128.00;-1.00;-1.00;18465;295;7504917;-32
2023/06/22 11:02:41;;;;;;;2.80;2.60;;;;;;;-128.00;-1.00;-1.00;18477;295;7505834;-32
2023/06/22 11:05:07;;;;;;;4.30;3.10;;;;;;;-128.00;-1.00;-1.00;18453;288;7505230;-32
2023/06/22 11:07:33;;;;;;;5.00;3.60;;;;;;;-128.00;-1.00;-1.00;18479;295;7506318;-32
2023/06/22 11:09:59;;;;;;;3.50;3.20;;;;;;;-128.00;-1.00;-1.00;18481;340;7505627;-33
2023/06/22 11:12:24;;;;;;;2.50;2.30;;;;;;;-128.00;-1.00;-1.00;18450;295;7505610;-36
2023/06/22 11:14:51;;;;;;;4.00;2.90;;;;;;;-128.00;-1.00;-1.00;18482;295;7504648;-36
2023/06/22 11:17:17;;;;;;;5.30;3.20;;;;;;;-128.00;-1.00;-1.00;18470;295;7505175;-36
2023/06/22 11:19:44;;;;;;;3.50;3.00;;;;;;;-128.00;-1.00;-1.00;18483;295;7505282;-36
2023/06/22 11:22:11;;;;;;;3.20;2.90;;;;;;;-128.00;-1.00;-1.00;18452;295;7504551;-32
2023/06/22 11:24:36;;;;;;;3.00;2.80;;;;;;;-128.00;-1.00;-1.00;18460;295;7504936;-32
2023/06/22 11:27:02;;;;;;;4.30;4.00;;;;;;;-128.00;-1.00;-1.00;18459;295;7505906;-33
2023/06/22 11:29:28;;;;;;;4.00;3.50;;;;;;;-128.00;-1.00;-1.00;18866;287;7504157;-36
2023/06/22 11:31:55;;;;;;;2.90;2.40;;;;;;;-128.00;-1.00;-1.00;18476;314;7505131;-36
2023/06/22 11:34:20;;;;;;;3.70;3.40;;;;;;;-128.00;-1.00;-1.00;18473;307;7504656;-32
2023/06/22 11:36:48;;;;;;;4.40;3.30;;;;;;;-128.00;-1.00;-1.00;18885;295;7505268;-35
2023/06/22 11:39:14;;;;;;;4.90;3.80;;;;;;;-128.00;-1.00;-1.00;18476;295;7504888;-32
2023/06/22 11:41:41;;;;;;;3.50;3.20;;;;;;;-128.00;-1.00;-1.00;18483;299;7506214;-32
2023/06/22 11:44:07;;;;;;;3.60;2.70;;;;;;;-128.00;-1.00;-1.00;18466;295;7506170;-32
2023/06/22 11:46:33;;;;;;;3.00;2.80;;;;;;;-128.00;-1.00;-1.00;18462;295;7504606;-36
2023/06/22 11:48:58;;;;;;;2.90;2.70;;;;;;;-128.00;-1.00;-1.00;18443;295;7505162;-33
2023/06/22 11:51:24;;;;;;;3.70;3.30;;;;;;;-128.00;-1.00;-1.00;18852;295;7504417;-36
2023/06/22 11:53:51;;;;;;;3.90;3.40;;;;;;;-128.00;-1.00;-1.00;18880;298;7506929;-32
2023/06/22 11:56:17;;;;;;;4.40;3.10;;;;;;;-128.00;-1.00;-1.00;18883;288;7505588;-32
2023/06/22 11:58:43;;;;;;;4.60;3.00;;;;;;;-128.00;-1.00;-1.00;18913;319;7506536;-32
2023/06/22 12:01:09;;;;;;;4.00;3.40;;;;;;;-128.00;-1.00;-1.00;18894;295;7504338;-32
2023/06/22 12:03:35;;;;;;;2.90;2.60;;;;;;;-128.00;-1.00;-1.00;18867;295;7504987;-35